Time;durP1;ratioP1;P1;durP2;ratioP2;P2;SDS_P1;SDS_P2;PMS_P1;PMS_P2;Temp;Humidity;BMP_temperature;BMP_pressure;BME280_temperature;BME280_humidity;BME280_pressure;Samples;Min_cycle;Max_cycle;Signal;HPM_P1;HPM_P2
2023/04/14 00:00:06;;;;;;;86.03;46.35;;;8.60;73.40;;;;;;5030360;27;114318;-86
2023/04/14 00:02:39;;;;;;;88.80;45.65;;;8.60;73.40;;;;;;5029727;27;114992;-86
2023/04/14 00:05:07;;;;;;;86.72;44.40;;;8.70;73.40;;;;;;5026965;27;120281;-86
2023/04/14 00:07:34;;;;;;;95.72;48.03;;;8.70;73.40;;;;;;4994230;27;114357;-85
2023/04/14 00:10:01;;;;;;;93.57;49.08;;;8.70;73.40;;;;;;5028084;27;114461;-86
2023/04/14 00:13:01;;;;;;;104.97;52.92;;;8.70;73.30;;;;;;5043243;27;114960;-87
2023/04/14 00:15:30;;;;;;;94.38;47.30;;;8.70;73.10;;;;;;5026566;27;117737;-84
2023/04/14 00:17:57;;;;;;;106.38;49.55;;;8.70;73.40;;;;;;5044470;27;114454;-85
2023/04/14 00:20:24;;;;;;;102.38;50.75;;;8.70;73.30;;;;;;5010893;27;114773;-86
2023/04/14 00:22:51;;;;;;;106.28;51.08;;;8.70;73.30;;;;;;4997416;27;120129;-86
2023/04/14 00:25:19;;;;;;;100.18;48.15;;;8.70;73.30;;;;;;5064086;27;115000;-86
2023/04/14 00:27:46;;;;;;;98.05;47.58;;;8.70;73.30;;;;;;4998041;27;114311;-86
2023/04/14 00:30:18;;;;;;;106.88;50.17;;;8.70;73.40;;;;;;5054245;27;114178;-86
2023/04/14 00:32:47;;;;;;;93.67;46.70;;;8.70;73.50;;;;;;5048035;27;115003;-86
2023/04/14 00:35:15;;;;;;;101.95;50.97;;;8.70;73.30;;;;;;5047473;27;116661;-85
2023/04/14 00:37:42;;;;;;;110.18;50.58;;;8.70;73.30;;;;;;5032546;27;114202;-87
2023/04/14 00:40:12;;;;;;;109.30;52.53;;;8.70;73.30;;;;;;5030949;27;114456;-83
2023/04/14 00:42:45;;;;;;;97.90;48.38;;;8.70;73.50;;;;;;5044950;27;116124;-84
2023/04/14 00:45:13;;;;;;;100.45;48.90;;;8.70;73.60;;;;;;5011761;27;118137;-86
2023/04/14 00:47:41;;;;;;;108.20;50.17;;;8.70;73.40;;;;;;5012216;27;114488;-83
2023/04/14 00:50:09;;;;;;;101.45;48.30;;;8.70;73.50;;;;;;5022846;27;114597;-84
2023/04/14 00:52:36;;;;;;;104.47;49.25;;;8.70;73.50;;;;;;5015225;27;115000;-83
2023/04/14 00:55:04;;;;;;;103.13;49.08;;;8.70;73.50;;;;;;5048351;27;114617;-84
2023/04/14 00:57:32;;;;;;;96.07;46.75;;;8.70;73.60;;;;;;5015678;27;114268;-84
2023/04/14 01:00:00;;;;;;;100.05;47.80;;;8.70;73.70;;;;;;5032997;27;114499;-85
2023/04/14 01:02:27;;;;;;;110.55;49.95;;;8.70;73.60;;;;;;5049777;27;118290;-85
2023/04/14 01:04:55;;;;;;;112.70;52.05;;;8.70;73.50;;;;;;5015231;27;118886;-85
2023/04/14 01:07:23;;;;;;;99.22;49.22;;;8.70;73.60;;;;;;5015991;27;119979;-85
2023/04/14 01:09:52;;;;;;;92.97;45.90;;;8.80;73.60;;;;;;5015342;27;114325;-86
2023/04/14 01:12:44;;;;;;;91.55;45.97;;;8.80;73.60;;;;;;5014938;27;117338;-85
2023/04/14 01:15:18;;;;;;;71.65;40.40;;;8.80;73.40;;;;;;5066182;27;118050;-85
2023/04/14 01:18:13;;;;;;;74.57;41.50;;;8.70;73.70;;;;;;5033217;27;114536;-86
2023/04/14 01:20:41;;;;;;;;;;;8.70;73.60;;;;;;5016812;27;114572;-85
2023/04/14 01:23:14;;;;;;;70.45;39.97;;;8.60;73.10;;;;;;5011234;27;118096;-85
2023/04/14 01:26:22;;;;;;;69.53;41.47;;;8.50;73.90;;;;;;4995479;27;115610;-84
2023/04/14 01:29:14;;;;;;;75.47;41.63;;;8.60;74.00;;;;;;5025010;27;114495;-84
2023/04/14 01:31:57;;;;;;;73.30;41.05;;;8.50;74.30;;;;;;4996924;27;114513;-84
2023/04/14 01:34:31;;;;;;;74.78;41.28;;;8.60;74.20;;;;;;5012031;27;114837;-85
2023/04/14 01:37:07;;;;;;;76.57;42.57;;;8.60;74.40;;;;;;5058197;27;115391;-85
2023/04/14 01:39:37;;;;;;;78.47;42.38;;;8.70;74.30;;;;;;5015621;27;114655;-85
2023/04/14 01:42:06;;;;;;;65.60;38.70;;;8.70;74.10;;;;;;5049208;27;118215;-85
2023/04/14 01:44:34;;;;;;;70.55;41.28;;;8.70;73.90;;;;;;5031097;27;115032;-85
2023/04/14 01:47:06;;;;;;;72.97;43.00;;;8.70;73.90;;;;;;5010018;27;118310;-85
2023/04/14 01:49:35;;;;;;;71.63;42.88;;;8.70;74.00;;;;;;5010400;27;114502;-87
2023/04/14 01:52:05;;;;;;;64.22;40.72;;;8.70;73.90;;;;;;4979052;27;114850;-85
2023/04/14 01:54:33;;;;;;;66.82;42.90;;;8.60;74.00;;;;;;5011463;27;118233;-85
2023/04/14 01:57:01;;;;;;;74.03;45.05;;;8.60;74.20;;;;;;4994618;27;114274;-85
2023/04/14 01:59:29;;;;;;;63.30;40.92;;;8.60;74.10;;;;;;4995333;27;114399;-85
2023/04/14 02:01:56;;;;;;;62.05;41.63;;;8.60;74.10;;;;;;5011364;27;114371;-85
2023/04/14 02:04:25;;;;;;;65.07;42.63;;;8.50;74.10;;;;;;4977750;27;117255;-85
2023/04/14 02:06:52;;;;;;;64.78;44.30;;;8.40;74.30;;;;;;4978076;27;119714;-86
2023/04/14 02:09:21;;;;;;;60.30;39.15;;;8.30;74.40;;;;;;5028471;27;114441;-85
2023/04/14 02:11:49;;;;;;;61.80;40.55;;;8.20;74.60;;;;;;4996333;27;114400;-84
2023/04/14 02:14:17;;;;;;;60.97;41.13;;;8.20;74.90;;;;;;5013015;27;115051;-84
2023/04/14 02:16:45;;;;;;;58.80;40.80;;;8.10;75.00;;;;;;5003188;27;117104;-84
2023/04/14 02:19:19;;;;;;;60.50;41.45;;;8.10;75.10;;;;;;5041711;27;114561;-84
2023/04/14 02:21:48;;;;;;;57.67;40.20;;;8.10;75.30;;;;;;4978212;27;114623;-84
2023/04/14 02:24:15;;;;;;;63.22;43.55;;;8.10;75.20;;;;;;4993579;27;117679;-84
2023/04/14 02:27:09;;;;;;;61.55;41.80;;;8.10;75.30;;;;;;4993143;27;117576;-83
2023/04/14 02:29:37;;;;;;;60.42;42.15;;;8.10;75.40;;;;;;4995624;27;114217;-83
2023/04/14 02:32:08;;;;;;;64.80;43.22;;;8.00;75.40;;;;;;5030272;27;114210;-83
2023/04/14 02:34:37;;;;;;;61.58;41.47;;;8.00;75.50;;;;;;5027828;27;114276;-83
2023/04/14 02:37:09;;;;;;;61.40;41.90;;;8.10;75.50;;;;;;5032074;27;114633;-84
2023/04/14 02:39:38;;;;;;;54.17;38.83;;;8.00;75.60;;;;;;5048637;27;114421;-84
2023/04/14 02:42:15;;;;;;;63.60;44.38;;;8.00;75.50;;;;;;5033068;27;114314;-83
2023/04/14 02:44:50;;;;;;;59.20;40.17;;;7.90;75.70;;;;;;5065223;27;114943;-84
2023/04/14 02:47:54;;;;;;;64.97;42.00;;;8.00;75.80;;;;;;5031823;27;115256;-84
2023/04/14 02:50:22;;;;;;;65.97;45.15;;;7.90;75.40;;;;;;5021380;27;114355;-88
2023/04/14 02:53:06;;;;;;;60.97;40.77;;;7.80;75.80;;;;;;5034155;27;114248;-88
2023/04/14 02:55:35;;;;;;;67.55;45.08;;;7.80;75.90;;;;;;5014456;27;120509;-87
2023/04/14 02:58:02;;;;;;;62.15;43.47;;;7.80;76.00;;;;;;5031749;27;114636;-86
2023/04/14 03:00:34;;;;;;;66.07;45.67;;;7.80;76.10;;;;;;5000022;27;114425;-87
2023/04/14 03:03:02;;;;;;;68.32;45.42;;;7.90;76.10;;;;;;5015681;27;114185;-85
2023/04/14 03:05:29;;;;;;;61.22;43.33;;;7.90;76.20;;;;;;4997484;27;117935;-84
2023/04/14 03:08:09;;;;;;;62.53;43.45;;;7.90;76.20;;;;;;5033968;27;114637;-86
2023/04/14 03:10:39;;;;;;;67.55;44.90;;;8.00;76.20;;;;;;5032693;27;114380;-86
2023/04/14 03:13:07;;;;;;;72.57;48.53;;;8.00;76.00;;;;;;5015204;27;114423;-86
2023/04/14 03:15:35;;;;;;;62.80;44.30;;;8.10;76.00;;;;;;5047701;27;115167;-84
2023/04/14 03:18:02;;;;;;;64.38;45.08;;;8.20;75.80;;;;;;5014176;27;114584;-84
2023/04/14 03:20:29;;;;;;;66.30;46.05;;;8.20;75.80;;;;;;5031707;27;114489;-84
2023/04/14 03:23:00;;;;;;;63.45;44.30;;;8.30;75.60;;;;;;5040900;27;117153;-85
2023/04/14 03:25:36;;;;;;;61.05;42.65;;;8.30;75.30;;;;;;5011706;27;115370;-86
2023/04/14 03:28:11;;;;;;;60.30;42.95;;;8.30;75.20;;;;;;4994615;27;118425;-86
2023/04/14 03:30:40;;;;;;;57.42;38.63;;;8.30;75.30;;;;;;4994341;27;114436;-86
2023/04/14 03:33:10;;;;;;;59.00;40.88;;;8.30;75.40;;;;;;4994177;27;114626;-85
2023/04/14 03:35:38;;;;;;;61.95;42.80;;;8.30;75.40;;;;;;4993693;27;118496;-85
2023/04/14 03:38:08;;;;;;;58.05;41.00;;;8.40;75.20;;;;;;5010561;27;115136;-87
2023/04/14 03:40:37;;;;;;;63.08;44.22;;;8.30;75.10;;;;;;5027836;27;114482;-85
2023/04/14 03:43:06;;;;;;;69.75;47.55;;;8.30;75.20;;;;;;4995205;27;114424;-85
2023/04/14 03:45:37;;;;;;;62.72;44.03;;;8.30;75.30;;;;;;5027143;27;115506;-84
2023/04/14 03:48:10;;;;;;;62.53;42.42;;;8.30;75.20;;;;;;5010800;27;117564;-84
2023/04/14 03:50:45;;;;;;;58.35;42.05;;;8.30;75.20;;;;;;5028619;27;114328;-84
2023/04/14 03:53:13;;;;;;;64.78;44.88;;;8.20;75.20;;;;;;5011121;27;117891;-85
2023/04/14 03:55:41;;;;;;;63.40;43.90;;;8.20;75.30;;;;;;5009301;27;117887;-84
2023/04/14 03:58:16;;;;;;;63.40;44.72;;;8.20;75.40;;;;;;4995047;27;118239;-84
2023/04/14 04:00:46;;;;;;;56.42;40.15;;;8.30;75.40;;;;;;5013094;27;114296;-85
2023/04/14 04:03:14;;;;;;;60.42;41.25;;;8.20;75.30;;;;;;5018760;27;114220;-84
2023/04/14 04:05:42;;;;;;;60.03;42.20;;;8.30;75.30;;;;;;5034775;27;116770;-86
2023/04/14 04:08:09;;;;;;;60.20;42.13;;;8.20;75.20;;;;;;5056236;27;114224;-86
2023/04/14 04:10:36;;;;;;;52.85;39.17;;;8.30;75.20;;;;;;5021614;27;114414;-85
2023/04/14 04:13:14;;;;;;;59.58;41.28;;;8.30;75.10;;;;;;5047524;27;114439;-86
2023/04/14 04:15:41;;;;;;;54.25;37.75;;;8.30;75.10;;;;;;5013868;27;114830;-86
2023/04/14 04:18:09;;;;;;;53.38;38.30;;;8.30;74.90;;;;;;5010684;27;117357;-86
2023/04/14 04:20:40;;;;;;;53.05;37.55;;;8.30;75.00;;;;;;4995181;27;114231;-85
2023/04/14 04:23:08;;;;;;;56.58;39.05;;;8.30;75.00;;;;;;4993908;27;114496;-84
2023/04/14 04:25:36;;;;;;;50.85;37.55;;;8.40;75.00;;;;;;4992370;27;117943;-85
2023/04/14 04:28:23;;;;;;;48.13;34.40;;;8.40;74.90;;;;;;5042108;27;117319;-84
2023/04/14 04:30:50;;;;;;;55.65;39.40;;;8.30;74.80;;;;;;4993662;27;114354;-85
2023/04/14 04:33:17;;;;;;;52.08;38.72;;;8.30;74.90;;;;;;5010084;27;114328;-85
2023/04/14 04:35:45;;;;;;;50.80;36.88;;;8.30;74.90;;;;;;5025949;27;115376;-85
2023/04/14 04:38:12;;;;;;;50.58;36.00;;;8.20;74.90;;;;;;5026148;27;114779;-85
2023/04/14 04:40:43;;;;;;;51.08;36.03;;;8.20;74.90;;;;;;5027009;27;114539;-86
2023/04/14 04:43:21;;;;;;;45.90;33.03;;;8.20;74.90;;;;;;4982080;27;114285;-84
2023/04/14 04:45:58;;;;;;;45.42;31.55;;;8.20;75.10;;;;;;5007479;27;118353;-84
2023/04/14 04:48:27;;;;;;;44.30;29.48;;;8.20;75.10;;;;;;5021249;27;114601;-84
2023/04/14 04:50:55;;;;;;;38.28;28.30;;;8.20;75.00;;;;;;5030876;27;114634;-85
2023/04/14 04:53:22;;;;;;;39.67;27.85;;;8.10;74.80;;;;;;5020838;27;114583;-84
2023/04/14 04:55:50;;;;;;;37.90;27.30;;;8.10;74.90;;;;;;5034516;27;115499;-83
2023/04/14 04:58:18;;;;;;;39.63;28.30;;;8.10;74.80;;;;;;5037802;27;115274;-85
2023/04/14 05:00:45;;;;;;;39.30;28.15;;;8.10;74.90;;;;;;5035412;27;114409;-83
2023/04/14 05:03:12;;;;;;;40.55;27.55;;;8.10;74.90;;;;;;5037360;27;114386;-83
2023/04/14 05:05:59;;;;;;;42.97;29.45;;;8.10;75.00;;;;;;5019590;27;118366;-85
2023/04/14 05:08:32;;;;;;;41.50;30.95;;;8.10;75.20;;;;;;5014413;27;117121;-85
2023/04/14 05:11:07;;;;;;;45.17;31.40;;;8.00;75.20;;;;;;5002759;28;114417;-84
2023/04/14 05:13:34;;;;;;;45.10;31.92;;;7.90;75.40;;;;;;5004193;27;114547;-85
2023/04/14 05:16:05;;;;;;;44.03;31.27;;;7.90;75.50;;;;;;4987874;27;115039;-84
2023/04/14 05:18:45;;;;;;;45.90;31.53;;;7.90;75.70;;;;;;5012104;27;114594;-85
2023/04/14 05:21:21;;;;;;;45.78;31.88;;;7.80;75.60;;;;;;5031038;27;114550;-85
2023/04/14 05:23:54;;;;;;;44.95;32.33;;;7.90;75.80;;;;;;4995206;27;114583;-85
2023/04/14 05:26:22;;;;;;;47.05;32.35;;;7.90;75.80;;;;;;5009098;27;115665;-85
2023/04/14 05:29:10;;;;;;;47.42;33.70;;;7.90;75.80;;;;;;5010088;27;117675;-84
2023/04/14 05:31:37;;;;;;;48.47;35.15;;;8.00;75.80;;;;;;4978627;27;114870;-81
2023/04/14 05:34:04;;;;;;;47.00;34.17;;;8.00;75.90;;;;;;5010046;27;114475;-84
2023/04/14 05:36:35;;;;;;;54.70;38.53;;;8.10;75.80;;;;;;5044964;27;115349;-84
2023/04/14 05:39:05;;;;;;;51.03;35.72;;;8.00;75.80;;;;;;5012010;27;115172;-84
2023/04/14 05:41:32;;;;;;;54.47;38.42;;;8.00;75.80;;;;;;5047452;27;115381;-84
2023/04/14 05:44:02;;;;;;;51.53;36.75;;;8.10;75.70;;;;;;5048354;27;114187;-84
2023/04/14 05:46:34;;;;;;;48.78;35.90;;;8.10;75.70;;;;;;5015759;27;114950;-84
2023/04/14 05:49:03;;;;;;;50.83;36.28;;;8.10;75.50;;;;;;5056324;27;114669;-84
2023/04/14 05:51:35;;;;;;;49.92;34.97;;;8.10;75.60;;;;;;5053828;27;114310;-83
2023/04/14 05:54:02;;;;;;;48.80;34.20;;;8.10;75.50;;;;;;5045099;27;114544;-84
2023/04/14 05:56:42;;;;;;;50.15;36.00;;;8.20;75.60;;;;;;5010740;27;114357;-84
2023/04/14 05:59:34;;;;;;;52.58;37.35;;;8.20;75.70;;;;;;5031712;27;116355;-84
2023/04/14 06:02:06;;;;;;;53.17;37.05;;;8.20;75.50;;;;;;5024719;27;114939;-86
2023/04/14 06:04:33;;;;;;;50.97;36.15;;;8.20;75.60;;;;;;5036062;27;114559;-86
2023/04/14 06:07:02;;;;;;;51.20;34.25;;;8.20;75.50;;;;;;5018241;27;115513;-86
2023/04/14 06:09:30;;;;;;;46.88;34.05;;;8.30;75.50;;;;;;5035455;27;114750;-86
2023/04/14 06:11:57;;;;;;;51.45;35.65;;;8.30;75.30;;;;;;5027047;27;116280;-86
2023/04/14 06:14:42;;;;;;;49.53;36.40;;;8.40;75.20;;;;;;5023081;27;114492;-86
2023/04/14 06:17:09;;;;;;;50.80;33.80;;;8.40;75.20;;;;;;5009269;27;114352;-85
2023/04/14 06:19:39;;;;;;;51.80;35.17;;;8.40;75.10;;;;;;5040694;27;115309;-85
2023/04/14 06:22:08;;;;;;;46.95;33.85;;;8.50;75.00;;;;;;5007651;27;114493;-85
2023/04/14 06:24:35;;;;;;;53.13;36.22;;;8.50;75.00;;;;;;5050274;27;114739;-84
2023/04/14 06:27:04;;;;;;;49.80;35.30;;;8.50;75.10;;;;;;5040485;27;115994;-86
2023/04/14 06:29:43;;;;;;;51.05;36.13;;;8.50;75.10;;;;;;5021482;27;116716;-85
2023/04/14 06:32:11;;;;;;;46.55;34.33;;;8.50;75.00;;;;;;5028423;27;114305;-85
2023/04/14 06:34:42;;;;;;;49.65;35.28;;;8.60;75.00;;;;;;5045093;27;114211;-85
2023/04/14 06:37:17;;;;;;;48.40;35.65;;;8.70;74.70;;;;;;5042456;27;115076;-85
2023/04/14 06:39:48;;;;;;;46.72;33.60;;;8.70;74.50;;;;;;5034031;27;116922;-85
2023/04/14 06:42:16;;;;;;;49.88;36.45;;;8.70;74.60;;;;;;5071702;27;114464;-85
2023/04/14 06:44:44;;;;;;;51.00;35.95;;;8.70;74.70;;;;;;5049667;27;114327;-85
2023/04/14 06:47:17;;;;;;;48.38;35.80;;;8.70;74.30;;;;;;5028426;27;118689;-85
2023/04/14 06:49:44;;;;;;;49.75;37.35;;;8.70;74.40;;;;;;5013073;27;117926;-85
2023/04/14 06:52:12;;;;;;;48.15;34.20;;;8.80;74.30;;;;;;5030161;27;117078;-85
2023/04/14 06:54:41;;;;;;;49.38;36.28;;;8.80;74.00;;;;;;5034787;27;117816;-84
2023/04/14 06:57:11;;;;;;;49.25;34.10;;;8.70;74.10;;;;;;5067457;27;114414;-85
2023/04/14 06:59:41;;;;;;;45.92;33.58;;;8.80;74.10;;;;;;5058680;27;114679;-85
2023/04/14 07:02:08;;;;;;;44.75;32.83;;;8.80;73.80;;;;;;5026780;27;114775;-86
2023/04/14 07:04:36;;;;;;;46.08;34.90;;;8.80;73.80;;;;;;5014468;27;114640;-85
2023/04/14 07:07:05;;;;;;;47.17;34.25;;;8.70;73.80;;;;;;5011401;27;114945;-86
2023/04/14 07:09:33;;;;;;;47.03;35.80;;;8.70;74.10;;;;;;5045035;27;115251;-85
2023/04/14 07:12:02;;;;;;;44.28;31.48;;;8.80;74.10;;;;;;4995770;27;114597;-86
2023/04/14 07:14:31;;;;;;;46.55;34.63;;;8.90;73.80;;;;;;5028518;27;114546;-85
2023/04/14 07:17:01;;;;;;;51.40;33.42;;;8.90;73.60;;;;;;5027603;27;115115;-86
2023/04/14 07:19:29;;;;;;;47.08;33.53;;;8.80;73.50;;;;;;5044803;27;115174;-86
2023/04/14 07:21:56;;;;;;;52.17;36.08;;;8.80;73.60;;;;;;5046207;27;114501;-85
2023/04/14 07:24:44;;;;;;;49.28;34.90;;;8.80;73.70;;;;;;5018222;27;116350;-88
2023/04/14 07:27:14;;;;;;;46.38;33.83;;;8.80;73.70;;;;;;5044569;27;114431;-85
2023/04/14 07:29:45;;;;;;;49.78;36.03;;;8.80;73.70;;;;;;5008769;27;117937;-85
2023/04/14 07:32:17;;;;;;;47.00;35.78;;;8.90;73.70;;;;;;5029293;27;114500;-85
2023/04/14 07:34:52;;;;;;;50.88;36.45;;;9.00;73.70;;;;;;5049720;27;114275;-85
2023/04/14 07:37:20;;;;;;;51.63;36.17;;;9.00;73.90;;;;;;5031000;27;114907;-86
2023/04/14 07:39:47;;;;;;;51.78;37.17;;;9.10;73.90;;;;;;5009030;27;117484;-86
2023/04/14 07:42:17;;;;;;;47.92;35.58;;;9.10;73.50;;;;;;5019144;27;114253;-86
2023/04/14 07:44:48;;;;;;;54.72;37.92;;;9.10;73.30;;;;;;5012673;27;114391;-85
2023/04/14 07:47:18;;;;;;;49.88;35.75;;;9.10;73.60;;;;;;5043897;27;114890;-86
2023/04/14 07:49:46;;;;;;;53.45;38.47;;;9.10;73.70;;;;;;5007320;27;117552;-86
2023/04/14 07:52:13;;;;;;;55.28;37.92;;;9.20;73.80;;;;;;4998090;27;114298;-87
2023/04/14 07:54:40;;;;;;;51.70;37.50;;;9.20;73.70;;;;;;5046089;27;114451;-87
2023/04/14 07:57:10;;;;;;;52.38;37.88;;;9.20;73.80;;;;;;5015783;27;115125;-84
2023/04/14 07:59:41;;;;;;;50.45;37.05;;;9.20;74.00;;;;;;4992089;27;117119;-86
2023/04/14 08:02:12;;;;;;;54.63;39.40;;;9.30;73.90;;;;;;5052225;27;114673;-86
2023/04/14 08:05:00;;;;;;;49.80;36.10;;;9.30;73.90;;;;;;5025120;27;114291;-85
2023/04/14 08:07:29;;;;;;;51.33;37.70;;;9.30;73.90;;;;;;5031067;27;115452;-87
2023/04/14 08:09:58;;;;;;;49.33;37.00;;;9.30;73.90;;;;;;5033576;27;114571;-87
2023/04/14 08:12:28;;;;;;;52.20;38.78;;;9.40;73.50;;;;;;5031648;27;114394;-85
2023/04/14 08:14:56;;;;;;;52.97;38.10;;;9.30;73.50;;;;;;5014941;27;114511;-85
2023/04/14 08:17:27;;;;;;;54.83;40.20;;;9.30;73.70;;;;;;5018050;27;117648;-84
2023/04/14 08:19:55;;;;;;;54.33;37.83;;;9.30;73.90;;;;;;5027207;27;117741;-88
2023/04/14 08:22:26;;;;;;;53.78;39.15;;;9.30;74.10;;;;;;5028368;27;114368;-86
2023/04/14 08:24:56;;;;;;;54.85;39.40;;;9.30;74.10;;;;;;5028331;27;114684;-85
2023/04/14 08:27:25;;;;;;;53.50;38.60;;;9.30;74.30;;;;;;5009077;27;117017;-86
2023/04/14 08:29:53;;;;;;;54.03;39.90;;;9.30;74.40;;;;;;4993024;27;117841;-86
2023/04/14 08:32:21;;;;;;;53.05;38.95;;;9.40;74.20;;;;;;4993657;27;116790;-86
2023/04/14 08:34:48;;;;;;;52.58;38.10;;;9.50;74.20;;;;;;5026681;27;114427;-86
2023/04/14 08:37:37;;;;;;;49.05;36.10;;;9.60;74.10;;;;;;4996955;27;115150;-87
2023/04/14 08:40:07;;;;;;;53.47;37.78;;;9.70;73.90;;;;;;5010802;27;115136;-86
2023/04/14 08:42:35;;;;;;;48.72;34.88;;;9.80;73.60;;;;;;5008278;27;114351;-86
2023/04/14 08:45:03;;;;;;;50.45;36.58;;;9.90;73.30;;;;;;5010721;27;114275;-85
2023/04/14 08:47:31;;;;;;;50.10;36.28;;;9.90;73.20;;;;;;5041396;27;115055;-87
2023/04/14 08:50:03;;;;;;;47.90;36.00;;;9.90;72.90;;;;;;5015431;27;116359;-87
2023/04/14 08:52:34;;;;;;;49.17;35.40;;;10.00;72.70;;;;;;5048325;27;114569;-89
2023/04/14 08:55:03;;;;;;;51.97;37.17;;;10.10;72.50;;;;;;4995756;27;114478;-87
2023/04/14 08:57:35;;;;;;;50.13;36.80;;;10.10;72.70;;;;;;4996846;27;117513;-86
2023/04/14 09:00:04;;;;;;;47.70;35.40;;;10.20;72.30;;;;;;5044827;27;114436;-85
2023/04/14 09:02:32;;;;;;;46.20;35.38;;;10.20;72.10;;;;;;5052885;27;114254;-85
2023/04/14 09:05:00;;;;;;;44.17;34.53;;;10.30;71.60;;;;;;5035103;27;114780;-85
2023/04/14 09:07:27;;;;;;;43.67;33.35;;;10.40;71.60;;;;;;5033522;27;118506;-86
2023/04/14 09:09:56;;;;;;;43.90;30.75;;;10.50;71.20;;;;;;5046566;27;117371;-86
2023/04/14 09:12:26;;;;;;;39.08;29.08;;;10.70;70.70;;;;;;5049510;27;114266;-85
2023/04/14 09:14:54;;;;;;;41.28;29.25;;;10.70;70.40;;;;;;4998619;27;114769;-85
2023/04/14 09:17:21;;;;;;;36.22;29.35;;;10.80;70.00;;;;;;5029527;27;118019;-85
2023/04/14 09:19:49;;;;;;;42.33;31.48;;;10.80;69.90;;;;;;5045566;27;114402;-85
2023/04/14 09:22:38;;;;;;;38.50;28.63;;;11.00;69.70;;;;;;5006244;27;114265;-84
2023/04/14 09:25:06;;;;;;;36.25;28.13;;;11.00;69.40;;;;;;5052464;27;114470;-86
2023/04/14 09:27:36;;;;;;;34.55;25.52;;;11.10;68.90;;;;;;5030005;27;117703;-85
2023/04/14 09:30:04;;;;;;;33.05;25.83;;;11.20;68.40;;;;;;5041967;27;114703;-85
2023/04/14 09:32:33;;;;;;;32.85;26.45;;;11.30;67.70;;;;;;5064619;27;114655;-85
2023/04/14 09:35:00;;;;;;;35.35;26.80;;;11.30;67.50;;;;;;5017321;27;117035;-86
2023/04/14 09:37:43;;;;;;;32.60;25.92;;;11.30;67.30;;;;;;5030736;27;115036;-84
2023/04/14 09:40:30;;;;;;;32.78;26.02;;;11.40;67.00;;;;;;4979429;27;116029;-86
2023/04/14 09:42:58;;;;;;;33.03;25.40;;;11.30;67.40;;;;;;5015019;27;114526;-87
2023/04/14 09:45:43;;;;;;;36.95;27.50;;;11.30;67.30;;;;;;5051578;27;117763;-86
2023/04/14 09:48:14;;;;;;;35.92;26.30;;;11.40;67.30;;;;;;5037718;27;114923;-86
2023/04/14 09:51:02;;;;;;;34.42;26.13;;;11.30;67.60;;;;;;4995682;27;117902;-86
2023/04/14 09:53:31;;;;;;;32.72;25.35;;;11.40;67.00;;;;;;5050910;27;114313;-86
2023/04/14 09:56:02;;;;;;;35.95;26.58;;;11.40;67.20;;;;;;5016371;27;114357;-85
2023/04/14 09:58:39;;;;;;;30.60;23.35;;;11.40;67.10;;;;;;4995141;27;118705;-86
2023/04/14 10:01:19;;;;;;;31.35;23.50;;;11.50;67.00;;;;;;5013331;27;116045;-85
2023/04/14 10:03:51;;;;;;;29.95;24.42;;;11.60;66.20;;;;;;5031790;27;114267;-86
2023/04/14 10:06:21;;;;;;;34.33;25.17;;;11.60;66.20;;;;;;5014306;27;114391;-84
2023/04/14 10:08:54;;;;;;;30.40;23.70;;;11.60;66.60;;;;;;4996364;27;118454;-85
2023/04/14 10:11:22;;;;;;;33.20;24.88;;;11.70;65.90;;;;;;5045737;27;114886;-85
2023/04/14 10:13:53;;;;;;;35.08;26.08;;;11.60;66.00;;;;;;5011546;27;116521;-85
2023/04/14 10:16:23;;;;;;;34.38;26.52;;;11.70;66.40;;;;;;4997490;27;114235;-85
2023/04/14 10:18:54;;;;;;;33.88;26.15;;;11.70;66.80;;;;;;5012938;27;118328;-85
2023/04/14 10:21:21;;;;;;;37.28;26.20;;;11.70;66.40;;;;;;4978328;27;117540;-86
2023/04/14 10:23:49;;;;;;;33.85;25.63;;;11.70;66.50;;;;;;5047402;27;114585;-86
2023/04/14 10:26:17;;;;;;;35.58;25.45;;;11.80;65.80;;;;;;5026080;27;114581;-86
2023/04/14 10:28:53;;;;;;;32.10;23.98;;;11.80;65.60;;;;;;5011559;27;114921;-86
2023/04/14 10:31:30;;;;;;;28.02;23.20;;;11.70;65.30;;;;;;4994606;27;117698;-84
2023/04/14 10:34:05;;;;;;;31.00;23.52;;;11.70;65.40;;;;;;5043882;27;116523;-86
2023/04/14 10:36:35;;;;;;;34.25;23.65;;;11.60;65.50;;;;;;5012498;27;117106;-84
2023/04/14 10:39:06;;;;;;;35.53;24.90;;;11.50;66.00;;;;;;4994439;27;117987;-83
2023/04/14 10:42:00;;;;;;;35.33;25.75;;;11.50;66.10;;;;;;4995443;27;117018;-85
2023/04/14 10:44:39;;;;;;;30.10;22.95;;;11.50;66.20;;;;;;5027217;27;114598;-85
2023/04/14 10:47:25;;;;;;;30.30;23.27;;;11.50;66.30;;;;;;4998487;27;114353;-85
2023/04/14 10:49:52;;;;;;;30.17;23.08;;;11.60;66.00;;;;;;5011976;27;114878;-84
2023/04/14 10:52:21;;;;;;;32.35;24.08;;;11.60;66.40;;;;;;5028741;27;114616;-85
2023/04/14 10:54:50;;;;;;;27.65;22.20;;;11.70;66.10;;;;;;5011893;27;114765;-86
2023/04/14 10:57:24;;;;;;;31.38;23.27;;;11.90;65.90;;;;;;5028754;27;116318;-85
2023/04/14 10:59:58;;;;;;;32.05;22.90;;;11.90;65.80;;;;;;5010830;27;118111;-86
2023/04/14 11:02:31;;;;;;;30.27;21.45;;;12.00;65.80;;;;;;5027462;27;114668;-85
2023/04/14 11:05:04;;;;;;;28.48;22.35;;;12.10;65.40;;;;;;5028398;27;114471;-85
2023/04/14 11:07:45;;;;;;;28.17;21.25;;;12.20;65.00;;;;;;5011860;27;114446;-86
2023/04/14 11:10:21;;;;;;;24.50;17.60;;;12.30;64.80;;;;;;5043788;27;115288;-85
2023/04/14 11:13:09;;;;;;;25.05;18.02;;;12.40;63.50;;;;;;5025561;27;117283;-85
2023/04/14 11:15:57;;;;;;;22.55;16.38;;;12.50;62.90;;;;;;5045161;27;114464;-86
2023/04/14 11:18:31;;;;;;;21.98;16.17;;;12.50;62.40;;;;;;4998354;27;114539;-85
2023/04/14 11:21:05;;;;;;;;;;;12.50;62.10;;;;;;5046988;27;114920;-84
2023/04/14 11:23:34;;;;;;;21.88;15.07;;;12.50;62.90;;;;;;5032407;27;115117;-84
2023/04/14 11:26:03;;;;;;;17.65;13.88;;;12.50;62.20;;;;;;5019386;27;114489;-83
2023/04/14 11:28:34;;;;;;;18.73;13.52;;;12.60;62.00;;;;;;5016189;27;114398;-85
2023/04/14 11:31:03;;;;;;;21.25;14.13;;;12.70;61.10;;;;;;5048594;27;114911;-85
2023/04/14 11:33:36;;;;;;;17.40;13.82;;;12.70;60.90;;;;;;5052589;27;115258;-86
2023/04/14 11:36:04;;;;;;;16.42;12.95;;;12.80;60.40;;;;;;5012214;27;114356;-86
2023/04/14 11:38:34;;;;;;;16.42;12.40;;;12.80;60.10;;;;;;5018121;27;114777;-85
2023/04/14 11:41:01;;;;;;;17.17;11.98;;;12.90;60.30;;;;;;5028704;27;118033;-85
2023/04/14 11:43:31;;;;;;;14.63;10.90;;;13.00;59.60;;;;;;5045087;27;117455;-85
2023/04/14 11:46:01;;;;;;;13.93;11.73;;;13.20;58.90;;;;;;5012468;27;114452;-85
2023/04/14 11:48:29;;;;;;;14.77;10.43;;;13.20;58.20;;;;;;5029626;27;114388;-85
2023/04/14 11:51:02;;;;;;;12.32;10.25;;;13.30;58.30;;;;;;5013195;27;117282;-84
2023/04/14 11:53:31;;;;;;;12.95;9.40;;;13.40;58.30;;;;;;5049365;27;114982;-84
2023/04/14 11:55:59;;;;;;;12.00;9.18;;;13.50;56.90;;;;;;5006641;27;114539;-84
2023/04/14 11:58:27;;;;;;;13.07;8.82;;;13.50;56.40;;;;;;5028714;27;114404;-85
2023/04/14 12:00:56;;;;;;;11.50;9.07;;;13.50;56.40;;;;;;5027035;27;115600;-86
2023/04/14 12:03:27;;;;;;;12.27;9.27;;;13.50;56.10;;;;;;4995399;27;117594;-86
2023/04/14 12:06:17;;;;;;;12.50;9.48;;;13.50;55.90;;;;;;5034126;27;116615;-84
2023/04/14 12:08:50;;;;;;;13.65;9.02;;;13.50;56.10;;;;;;5027543;27;114435;-86
2023/04/14 12:11:19;;;;;;;12.77;9.48;;;13.50;55.80;;;;;;5006752;27;114888;-88
2023/04/14 12:13:47;;;;;;;14.70;9.20;;;13.50;56.00;;;;;;5041184;27;115320;-86
2023/04/14 12:16:15;;;;;;;13.27;9.50;;;13.50;55.80;;;;;;5026846;27;114568;-88
2023/04/14 12:18:43;;;;;;;14.65;9.27;;;13.40;55.70;;;;;;4992816;27;114312;-87
2023/04/14 12:21:14;;;;;;;13.25;8.93;;;13.40;55.70;;;;;;5005618;27;118431;-87
2023/04/14 12:23:44;;;;;;;13.15;8.60;;;13.40;55.90;;;;;;5036281;27;117171;-87
2023/04/14 12:26:11;;;;;;;11.95;8.50;;;13.30;56.10;;;;;;5011459;27;114387;-87
2023/04/14 12:28:40;;;;;;;13.25;8.10;;;13.40;55.80;;;;;;5009787;27;114641;-86
2023/04/14 12:31:08;;;;;;;11.23;8.52;;;13.40;56.10;;;;;;4997849;27;118428;-86
2023/04/14 12:33:36;;;;;;;11.00;7.88;;;13.40;56.30;;;;;;4999943;27;115968;-88
2023/04/14 12:36:04;;;;;;;10.27;7.72;;;13.40;56.00;;;;;;5006825;27;114765;-86
2023/04/14 12:38:34;;;;;;;12.52;8.35;;;13.40;55.80;;;;;;5002209;27;114762;-86
2023/04/14 12:41:02;;;;;;;12.40;9.00;;;13.40;55.60;;;;;;5032983;27;116162;-86
2023/04/14 12:43:36;;;;;;;12.35;8.70;;;13.40;55.80;;;;;;5016869;27;115145;-86
2023/04/14 12:46:04;;;;;;;13.68;8.73;;;13.50;55.60;;;;;;4998446;27;115015;-86